sensor_id;sensor_type;location;lat;lon;timestamp;P1;durP1;ratioP1;P2;durP2;ratioP2
84877;SDS011;75140;47.754;8.840;2024-02-26T00:00:06;2.47;;;1.50;;
84877;SDS011;75140;47.754;8.840;2024-02-26T00:02:34;3.25;;;2.20;;
84877;SDS011;75140;47.754;8.840;2024-02-26T00:05:04;2.65;;;2.15;;
84877;SDS011;75140;47.754;8.840;2024-02-26T00:07:30;3.10;;;1.77;;
84877;SDS011;75140;47.754;8.840;2024-02-26T00:09:56;3.17;;;1.67;;
84877;SDS011;75140;47.754;8.840;2024-02-26T00:12:21;2.20;;;1.53;;
84877;SDS011;75140;47.754;8.840;2024-02-26T00:14:46;3.83;;;2.20;;
84877;SDS011;75140;47.754;8.840;2024-02-26T00:17:14;4.32;;;1.75;;
84877;SDS011;75140;47.754;8.840;2024-02-26T00:19:40;1.65;;;1.38;;
84877;SDS011;75140;47.754;8.840;2024-02-26T00:22:05;3.07;;;1.43;;
84877;SDS011;75140;47.754;8.840;2024-02-26T00:24:30;1.50;;;1.33;;
84877;SDS011;75140;47.754;8.840;2024-02-26T00:26:56;2.60;;;1.50;;
84877;SDS011;75140;47.754;8.840;2024-02-26T00:29:21;2.70;;;1.35;;
84877;SDS011;75140;47.754;8.840;2024-02-26T00:31:47;2.35;;;1.45;;
84877;SDS011;75140;47.754;8.840;2024-02-26T00:34:12;3.42;;;1.35;;
84877;SDS011;75140;47.754;8.840;2024-02-26T00:36:37;2.53;;;1.47;;
84877;SDS011;75140;47.754;8.840;2024-02-26T00:39:03;2.17;;;1.70;;
84877;SDS011;75140;47.754;8.840;2024-02-26T00:41:28;4.22;;;1.83;;
84877;SDS011;75140;47.754;8.840;2024-02-26T00:43:54;1.58;;;1.13;;
84877;SDS011;75140;47.754;8.840;2024-02-26T00:46:19;3.23;;;1.60;;
84877;SDS011;75140;47.754;8.840;2024-02-26T00:48:44;3.63;;;2.47;;
84877;SDS011;75140;47.754;8.840;2024-02-26T00:51:10;3.30;;;1.93;;
84877;SDS011;75140;47.754;8.840;2024-02-26T00:53:35;5.53;;;2.10;;
84877;SDS011;75140;47.754;8.840;2024-02-26T00:56:00;2.97;;;1.93;;
84877;SDS011;75140;47.754;8.840;2024-02-26T00:58:26;4.93;;;2.85;;
84877;SDS011;75140;47.754;8.840;2024-02-26T01:00:52;5.35;;;2.90;;
84877;SDS011;75140;47.754;8.840;2024-02-26T01:03:17;4.97;;;2.30;;
84877;SDS011;75140;47.754;8.840;2024-02-26T01:05:43;5.68;;;2.67;;
84877;SDS011;75140;47.754;8.840;2024-02-26T01:08:09;4.72;;;2.35;;
84877;SDS011;75140;47.754;8.840;2024-02-26T01:10:34;5.65;;;2.53;;
84877;SDS011;75140;47.754;8.840;2024-02-26T01:13:00;3.45;;;1.95;;
84877;SDS011;75140;47.754;8.840;2024-02-26T01:15:26;2.75;;;1.92;;
84877;SDS011;75140;47.754;8.840;2024-02-26T01:17:51;3.67;;;1.90;;
84877;SDS011;75140;47.754;8.840;2024-02-26T01:20:17;2.70;;;1.70;;
84877;SDS011;75140;47.754;8.840;2024-02-26T01:22:43;2.55;;;1.50;;
84877;SDS011;75140;47.754;8.840;2024-02-26T01:25:09;3.17;;;2.15;;
84877;SDS011;75140;47.754;8.840;2024-02-26T01:27:35;2.80;;;1.40;;
84877;SDS011;75140;47.754;8.840;2024-02-26T01:30:04;2.10;;;1.77;;
84877;SDS011;75140;47.754;8.840;2024-02-26T01:32:30;8.35;;;2.08;;
84877;SDS011;75140;47.754;8.840;2024-02-26T01:34:55;4.18;;;1.80;;
84877;SDS011;75140;47.754;8.840;2024-02-26T01:37:21;3.22;;;1.88;;
84877;SDS011;75140;47.754;8.840;2024-02-26T01:39:46;1.90;;;1.40;;
84877;SDS011;75140;47.754;8.840;2024-02-26T01:42:12;3.47;;;1.80;;
84877;SDS011;75140;47.754;8.840;2024-02-26T01:44:37;5.38;;;1.40;;
84877;SDS011;75140;47.754;8.840;2024-02-26T01:47:03;4.93;;;2.00;;
84877;SDS011;75140;47.754;8.840;2024-02-26T01:49:29;2.65;;;1.17;;
84877;SDS011;75140;47.754;8.840;2024-02-26T01:51:55;2.20;;;1.40;;
84877;SDS011;75140;47.754;8.840;2024-02-26T01:54:21;2.40;;;1.30;;
84877;SDS011;75140;47.754;8.840;2024-02-26T01:56:46;4.70;;;2.20;;
84877;SDS011;75140;47.754;8.840;2024-02-26T01:59:12;5.05;;;2.35;;
84877;SDS011;75140;47.754;8.840;2024-02-26T02:01:38;2.60;;;1.58;;
84877;SDS011;75140;47.754;8.840;2024-02-26T02:04:08;2.75;;;1.50;;
84877;SDS011;75140;47.754;8.840;2024-02-26T02:06:34;3.25;;;1.83;;
84877;SDS011;75140;47.754;8.840;2024-02-26T02:09:01;1.88;;;1.20;;
84877;SDS011;75140;47.754;8.840;2024-02-26T02:11:31;2.00;;;1.33;;
84877;SDS011;75140;47.754;8.840;2024-02-26T02:13:58;2.97;;;2.08;;
84877;SDS011;75140;47.754;8.840;2024-02-26T02:16:24;1.92;;;1.27;;
84877;SDS011;75140;47.754;8.840;2024-02-26T02:18:49;2.28;;;1.60;;
84877;SDS011;75140;47.754;8.840;2024-02-26T02:21:15;3.90;;;1.45;;
84877;SDS011;75140;47.754;8.840;2024-02-26T02:23:40;1.40;;;1.10;;
84877;SDS011;75140;47.754;8.840;2024-02-26T02:28:36;3.10;;;1.33;;
84877;SDS011;75140;47.754;8.840;2024-02-26T02:31:02;2.33;;;1.70;;
84877;SDS011;75140;47.754;8.840;2024-02-26T02:33:28;3.08;;;1.58;;
84877;SDS011;75140;47.754;8.840;2024-02-26T02:35:54;2.35;;;1.48;;
84877;SDS011;75140;47.754;8.840;2024-02-26T02:38:20;3.05;;;1.48;;
84877;SDS011;75140;47.754;8.840;2024-02-26T02:40:45;4.75;;;2.03;;
84877;SDS011;75140;47.754;8.840;2024-02-26T02:43:11;3.13;;;1.33;;
84877;SDS011;75140;47.754;8.840;2024-02-26T02:45:36;2.30;;;1.27;;
84877;SDS011;75140;47.754;8.840;2024-02-26T02:48:02;2.70;;;1.70;;
84877;SDS011;75140;47.754;8.840;2024-02-26T02:50:27;2.90;;;1.42;;
84877;SDS011;75140;47.754;8.840;2024-02-26T02:52:54;2.88;;;1.50;;
84877;SDS011;75140;47.754;8.840;2024-02-26T02:55:19;1.88;;;1.10;;
84877;SDS011;75140;47.754;8.840;2024-02-26T02:57:45;2.55;;;1.40;;
84877;SDS011;75140;47.754;8.840;2024-02-26T03:00:10;2.73;;;1.47;;
84877;SDS011;75140;47.754;8.840;2024-02-26T03:02:36;2.90;;;1.23;;
84877;SDS011;75140;47.754;8.840;2024-02-26T03:05:04;2.53;;;1.40;;
84877;SDS011;75140;47.754;8.840;2024-02-26T03:07:30;2.53;;;1.70;;
84877;SDS011;75140;47.754;8.840;2024-02-26T03:09:56;1.55;;;0.95;;
84877;SDS011;75140;47.754;8.840;2024-02-26T03:12:21;2.38;;;1.40;;
84877;SDS011;75140;47.754;8.840;2024-02-26T03:14:46;1.67;;;1.03;;
84877;SDS011;75140;47.754;8.840;2024-02-26T03:17:12;3.00;;;1.50;;
84877;SDS011;75140;47.754;8.840;2024-02-26T03:19:38;1.52;;;1.13;;
84877;SDS011;75140;47.754;8.840;2024-02-26T03:22:03;1.47;;;1.20;;
84877;SDS011;75140;47.754;8.840;2024-02-26T03:24:29;1.65;;;1.40;;
84877;SDS011;75140;47.754;8.840;2024-02-26T03:26:54;2.33;;;1.23;;
84877;SDS011;75140;47.754;8.840;2024-02-26T03:29:20;2.33;;;1.17;;
84877;SDS011;75140;47.754;8.840;2024-02-26T03:31:45;5.67;;;3.10;;
84877;SDS011;75140;47.754;8.840;2024-02-26T03:34:10;8.23;;;6.40;;
84877;SDS011;75140;47.754;8.840;2024-02-26T03:36:37;11.50;;;7.13;;
84877;SDS011;75140;47.754;8.840;2024-02-26T03:39:03;8.40;;;5.07;;
84877;SDS011;75140;47.754;8.840;2024-02-26T03:41:32;7.75;;;5.70;;
84877;SDS011;75140;47.754;8.840;2024-02-26T03:44:01;4.80;;;2.75;;
84877;SDS011;75140;47.754;8.840;2024-02-26T03:46:26;2.67;;;1.48;;
84877;SDS011;75140;47.754;8.840;2024-02-26T03:48:52;3.17;;;1.67;;
84877;SDS011;75140;47.754;8.840;2024-02-26T03:51:18;2.53;;;1.40;;
84877;SDS011;75140;47.754;8.840;2024-02-26T03:53:43;2.92;;;1.20;;
84877;SDS011;75140;47.754;8.840;2024-02-26T03:56:09;3.17;;;1.30;;
84877;SDS011;75140;47.754;8.840;2024-02-26T03:58:36;3.50;;;1.30;;
84877;SDS011;75140;47.754;8.840;2024-02-26T04:01:02;1.00;;;0.90;;
84877;SDS011;75140;47.754;8.840;2024-02-26T04:03:27;1.27;;;0.77;;
84877;SDS011;75140;47.754;8.840;2024-02-26T04:05:53;2.78;;;1.30;;
84877;SDS011;75140;47.754;8.840;2024-02-26T04:08:18;2.20;;;1.23;;
84877;SDS011;75140;47.754;8.840;2024-02-26T04:10:44;2.17;;;1.27;;
84877;SDS011;75140;47.754;8.840;2024-02-26T04:13:09;3.07;;;1.43;;
84877;SDS011;75140;47.754;8.840;2024-02-26T04:15:35;1.80;;;1.20;;
84877;SDS011;75140;47.754;8.840;2024-02-26T04:18:00;2.10;;;1.50;;
84877;SDS011;75140;47.754;8.840;2024-02-26T04:20:25;1.93;;;1.20;;
84877;SDS011;75140;47.754;8.840;2024-02-26T04:22:51;2.92;;;2.20;;
84877;SDS011;75140;47.754;8.840;2024-02-26T04:25:16;2.67;;;1.40;;
84877;SDS011;75140;47.754;8.840;2024-02-26T04:27:41;2.23;;;1.17;;
84877;SDS011;75140;47.754;8.840;2024-02-26T04:30:07;1.93;;;1.23;;
84877;SDS011;75140;47.754;8.840;2024-02-26T04:32:33;5.30;;;1.40;;
84877;SDS011;75140;47.754;8.840;2024-02-26T04:34:59;1.55;;;1.00;;
84877;SDS011;75140;47.754;8.840;2024-02-26T04:37:25;1.55;;;1.10;;
84877;SDS011;75140;47.754;8.840;2024-02-26T04:39:55;2.95;;;1.45;;
84877;SDS011;75140;47.754;8.840;2024-02-26T04:42:24;2.92;;;1.30;;
84877;SDS011;75140;47.754;8.840;2024-02-26T04:44:49;1.83;;;1.37;;
84877;SDS011;75140;47.754;8.840;2024-02-26T04:47:15;2.03;;;1.23;;
84877;SDS011;75140;47.754;8.840;2024-02-26T04:49:40;1.40;;;1.10;;
84877;SDS011;75140;47.754;8.840;2024-02-26T04:52:05;2.23;;;1.20;;
84877;SDS011;75140;47.754;8.840;2024-02-26T04:54:31;1.27;;;1.03;;
84877;SDS011;75140;47.754;8.840;2024-02-26T04:56:56;2.07;;;1.30;;
84877;SDS011;75140;47.754;8.840;2024-02-26T04:59:21;2.60;;;1.90;;
84877;SDS011;75140;47.754;8.840;2024-02-26T05:01:47;1.70;;;1.20;;
84877;SDS011;75140;47.754;8.840;2024-02-26T05:04:12;2.10;;;1.10;;
84877;SDS011;75140;47.754;8.840;2024-02-26T05:06:38;1.60;;;1.03;;
84877;SDS011;75140;47.754;8.840;2024-02-26T05:09:03;2.15;;;0.85;;
84877;SDS011;75140;47.754;8.840;2024-02-26T05:11:29;1.60;;;1.27;;
84877;SDS011;75140;47.754;8.840;2024-02-26T05:13:54;1.67;;;1.10;;
84877;SDS011;75140;47.754;8.840;2024-02-26T05:16:19;3.35;;;1.20;;
84877;SDS011;75140;47.754;8.840;2024-02-26T05:18:46;1.25;;;0.80;;
84877;SDS011;75140;47.754;8.840;2024-02-26T05:21:12;2.70;;;1.20;;
84877;SDS011;75140;47.754;8.840;2024-02-26T05:23:37;3.05;;;1.17;;
84877;SDS011;75140;47.754;8.840;2024-02-26T05:26:02;3.63;;;1.10;;
84877;SDS011;75140;47.754;8.840;2024-02-26T05:28:28;1.90;;;1.15;;
84877;SDS011;75140;47.754;8.840;2024-02-26T05:30:53;2.27;;;1.10;;
84877;SDS011;75140;47.754;8.840;2024-02-26T05:33:19;3.75;;;1.67;;
84877;SDS011;75140;47.754;8.840;2024-02-26T05:35:44;2.58;;;1.60;;
84877;SDS011;75140;47.754;8.840;2024-02-26T05:38:10;2.63;;;1.20;;
84877;SDS011;75140;47.754;8.840;2024-02-26T05:40:35;1.63;;;1.03;;
84877;SDS011;75140;47.754;8.840;2024-02-26T05:43:00;3.15;;;1.02;;
84877;SDS011;75140;47.754;8.840;2024-02-26T05:45:26;1.70;;;0.68;;
84877;SDS011;75140;47.754;8.840;2024-02-26T05:47:51;1.90;;;0.93;;
84877;SDS011;75140;47.754;8.840;2024-02-26T05:50:17;3.00;;;1.27;;
84877;SDS011;75140;47.754;8.840;2024-02-26T05:52:42;2.27;;;1.20;;
84877;SDS011;75140;47.754;8.840;2024-02-26T05:55:08;1.52;;;0.98;;
84877;SDS011;75140;47.754;8.840;2024-02-26T05:57:34;2.92;;;0.90;;
84877;SDS011;75140;47.754;8.840;2024-02-26T06:00:00;1.73;;;0.90;;
84877;SDS011;75140;47.754;8.840;2024-02-26T06:02:29;3.85;;;1.20;;
84877;SDS011;75140;47.754;8.840;2024-02-26T06:04:54;2.92;;;1.63;;
84877;SDS011;75140;47.754;8.840;2024-02-26T06:07:20;1.83;;;1.07;;
84877;SDS011;75140;47.754;8.840;2024-02-26T06:09:45;5.10;;;1.30;;
84877;SDS011;75140;47.754;8.840;2024-02-26T06:12:10;2.93;;;1.30;;
84877;SDS011;75140;47.754;8.840;2024-02-26T06:14:36;2.70;;;1.40;;
84877;SDS011;75140;47.754;8.840;2024-02-26T06:17:01;2.23;;;1.43;;
84877;SDS011;75140;47.754;8.840;2024-02-26T06:19:27;1.60;;;0.93;;
84877;SDS011;75140;47.754;8.840;2024-02-26T06:21:52;2.10;;;1.23;;
84877;SDS011;75140;47.754;8.840;2024-02-26T06:24:17;1.27;;;0.80;;
84877;SDS011;75140;47.754;8.840;2024-02-26T06:26:43;2.20;;;1.38;;
84877;SDS011;75140;47.754;8.840;2024-02-26T06:29:08;1.67;;;1.00;;
84877;SDS011;75140;47.754;8.840;2024-02-26T06:31:33;2.23;;;1.37;;
84877;SDS011;75140;47.754;8.840;2024-02-26T06:33:59;2.80;;;1.00;;
84877;SDS011;75140;47.754;8.840;2024-02-26T06:36:24;1.80;;;0.90;;
84877;SDS011;75140;47.754;8.840;2024-02-26T06:38:50;3.38;;;1.52;;
84877;SDS011;75140;47.754;8.840;2024-02-26T06:41:16;4.15;;;1.35;;
84877;SDS011;75140;47.754;8.840;2024-02-26T06:43:42;2.28;;;1.50;;
84877;SDS011;75140;47.754;8.840;2024-02-26T06:46:07;2.20;;;1.57;;
84877;SDS011;75140;47.754;8.840;2024-02-26T06:48:32;1.87;;;1.27;;
84877;SDS011;75140;47.754;8.840;2024-02-26T06:50:58;2.07;;;1.20;;
84877;SDS011;75140;47.754;8.840;2024-02-26T06:53:23;2.67;;;1.83;;
84877;SDS011;75140;47.754;8.840;2024-02-26T06:55:48;5.72;;;2.38;;
84877;SDS011;75140;47.754;8.840;2024-02-26T06:58:15;3.10;;;1.70;;
84877;SDS011;75140;47.754;8.840;2024-02-26T07:00:40;5.00;;;2.55;;
84877;SDS011;75140;47.754;8.840;2024-02-26T07:03:06;3.80;;;1.40;;
84877;SDS011;75140;47.754;8.840;2024-02-26T07:05:31;9.55;;;3.65;;
84877;SDS011;75140;47.754;8.840;2024-02-26T07:07:56;4.23;;;2.77;;
84877;SDS011;75140;47.754;8.840;2024-02-26T07:10:22;1.67;;;1.13;;
84877;SDS011;75140;47.754;8.840;2024-02-26T07:12:47;3.50;;;1.73;;
84877;SDS011;75140;47.754;8.840;2024-02-26T07:15:12;2.47;;;1.10;;
84877;SDS011;75140;47.754;8.840;2024-02-26T07:17:38;1.20;;;0.90;;
84877;SDS011;75140;47.754;8.840;2024-02-26T07:20:07;1.25;;;1.15;;
84877;SDS011;75140;47.754;8.840;2024-02-26T07:22:33;4.15;;;1.17;;
84877;SDS011;75140;47.754;8.840;2024-02-26T07:24:58;1.93;;;1.30;;
84877;SDS011;75140;47.754;8.840;2024-02-26T07:27:24;2.70;;;1.70;;
84877;SDS011;75140;47.754;8.840;2024-02-26T07:29:49;3.47;;;2.30;;
84877;SDS011;75140;47.754;8.840;2024-02-26T07:32:14;4.70;;;1.50;;
84877;SDS011;75140;47.754;8.840;2024-02-26T07:34:40;2.08;;;1.52;;
84877;SDS011;75140;47.754;8.840;2024-02-26T07:37:09;3.15;;;1.50;;
84877;SDS011;75140;47.754;8.840;2024-02-26T07:39:35;8.23;;;2.00;;
84877;SDS011;75140;47.754;8.840;2024-02-26T07:42:01;3.47;;;1.77;;
84877;SDS011;75140;47.754;8.840;2024-02-26T07:44:27;2.38;;;1.85;;
84877;SDS011;75140;47.754;8.840;2024-02-26T07:46:52;3.70;;;1.80;;
84877;SDS011;75140;47.754;8.840;2024-02-26T07:49:18;5.33;;;1.93;;
84877;SDS011;75140;47.754;8.840;2024-02-26T07:51:43;3.00;;;1.75;;
84877;SDS011;75140;47.754;8.840;2024-02-26T07:54:08;5.43;;;2.27;;
84877;SDS011;75140;47.754;8.840;2024-02-26T07:56:34;3.20;;;2.13;;
84877;SDS011;75140;47.754;8.840;2024-02-26T07:58:59;6.50;;;3.85;;
84877;SDS011;75140;47.754;8.840;2024-02-26T08:01:24;6.97;;;4.73;;
84877;SDS011;75140;47.754;8.840;2024-02-26T08:03:51;3.20;;;2.35;;
84877;SDS011;75140;47.754;8.840;2024-02-26T08:06:18;9.70;;;3.53;;
84877;SDS011;75140;47.754;8.840;2024-02-26T08:08:43;4.25;;;2.55;;
84877;SDS011;75140;47.754;8.840;2024-02-26T08:11:09;7.45;;;2.42;;
84877;SDS011;75140;47.754;8.840;2024-02-26T08:13:34;5.57;;;3.03;;
84877;SDS011;75140;47.754;8.840;2024-02-26T08:16:00;4.30;;;2.08;;
84877;SDS011;75140;47.754;8.840;2024-02-26T08:18:26;4.03;;;1.80;;
84877;SDS011;75140;47.754;8.840;2024-02-26T08:20:51;4.33;;;1.80;;
84877;SDS011;75140;47.754;8.840;2024-02-26T08:23:17;14.17;;;2.07;;
84877;SDS011;75140;47.754;8.840;2024-02-26T08:25:42;6.95;;;3.25;;
84877;SDS011;75140;47.754;8.840;2024-02-26T08:28:08;5.18;;;2.90;;
84877;SDS011;75140;47.754;8.840;2024-02-26T08:30:33;3.87;;;2.10;;
84877;SDS011;75140;47.754;8.840;2024-02-26T08:32:59;15.55;;;3.72;;
84877;SDS011;75140;47.754;8.840;2024-02-26T08:35:24;4.13;;;1.73;;
84877;SDS011;75140;47.754;8.840;2024-02-26T08:37:50;5.10;;;2.00;;
84877;SDS011;75140;47.754;8.840;2024-02-26T08:40:15;4.82;;;1.90;;
84877;SDS011;75140;47.754;8.840;2024-02-26T08:42:40;3.75;;;2.38;;
84877;SDS011;75140;47.754;8.840;2024-02-26T08:45:07;3.88;;;1.90;;
84877;SDS011;75140;47.754;8.840;2024-02-26T08:47:33;4.38;;;2.58;;
84877;SDS011;75140;47.754;8.840;2024-02-26T08:49:58;5.05;;;2.28;;
84877;SDS011;75140;47.754;8.840;2024-02-26T08:52:23;3.60;;;2.10;;
84877;SDS011;75140;47.754;8.840;2024-02-26T08:54:49;2.75;;;2.17;;
84877;SDS011;75140;47.754;8.840;2024-02-26T08:57:15;3.55;;;1.77;;
84877;SDS011;75140;47.754;8.840;2024-02-26T08:59:40;3.60;;;1.60;;
84877;SDS011;75140;47.754;8.840;2024-02-26T09:02:07;4.63;;;1.73;;
84877;SDS011;75140;47.754;8.840;2024-02-26T09:04:34;17.40;;;5.32;;
84877;SDS011;75140;47.754;8.840;2024-02-26T09:07:00;13.38;;;4.30;;
84877;SDS011;75140;47.754;8.840;2024-02-26T09:09:26;3.30;;;2.00;;
84877;SDS011;75140;47.754;8.840;2024-02-26T09:11:51;4.25;;;2.45;;
84877;SDS011;75140;47.754;8.840;2024-02-26T09:14:17;5.72;;;2.65;;
84877;SDS011;75140;47.754;8.840;2024-02-26T09:16:43;4.55;;;2.50;;
84877;SDS011;75140;47.754;8.840;2024-02-26T09:19:08;3.87;;;2.83;;
84877;SDS011;75140;47.754;8.840;2024-02-26T09:21:33;4.63;;;3.13;;
84877;SDS011;75140;47.754;8.840;2024-02-26T09:23:59;6.97;;;4.00;;
84877;SDS011;75140;47.754;8.840;2024-02-26T09:26:24;6.80;;;4.03;;
84877;SDS011;75140;47.754;8.840;2024-02-26T09:28:49;4.87;;;3.10;;
84877;SDS011;75140;47.754;8.840;2024-02-26T09:31:15;4.13;;;2.90;;
84877;SDS011;75140;47.754;8.840;2024-02-26T09:33:41;4.07;;;2.85;;
84877;SDS011;75140;47.754;8.840;2024-02-26T09:36:07;5.20;;;2.95;;
84877;SDS011;75140;47.754;8.840;2024-02-26T09:38:34;4.10;;;2.92;;
84877;SDS011;75140;47.754;8.840;2024-02-26T09:41:02;3.97;;;3.00;;
84877;SDS011;75140;47.754;8.840;2024-02-26T09:43:34;5.25;;;2.83;;
84877;SDS011;75140;47.754;8.840;2024-02-26T09:46:04;14.18;;;2.78;;
84877;SDS011;75140;47.754;8.840;2024-02-26T09:48:30;14.55;;;3.80;;
84877;SDS011;75140;47.754;8.840;2024-02-26T09:50:59;3.65;;;2.13;;
84877;SDS011;75140;47.754;8.840;2024-02-26T09:53:26;4.00;;;1.98;;
84877;SDS011;75140;47.754;8.840;2024-02-26T09:55:54;4.45;;;2.50;;
84877;SDS011;75140;47.754;8.840;2024-02-26T09:58:19;6.53;;;2.30;;
84877;SDS011;75140;47.754;8.840;2024-02-26T10:00:46;3.33;;;2.22;;
84877;SDS011;75140;47.754;8.840;2024-02-26T10:03:18;2.65;;;1.90;;
84877;SDS011;75140;47.754;8.840;2024-02-26T10:05:47;3.17;;;1.60;;
84877;SDS011;75140;47.754;8.840;2024-02-26T10:08:14;3.75;;;2.00;;
84877;SDS011;75140;47.754;8.840;2024-02-26T10:10:40;3.85;;;1.75;;
84877;SDS011;75140;47.754;8.840;2024-02-26T10:13:06;2.33;;;1.55;;
84877;SDS011;75140;47.754;8.840;2024-02-26T10:15:35;5.70;;;2.15;;
84877;SDS011;75140;47.754;8.840;2024-02-26T10:18:03;4.35;;;2.75;;
84877;SDS011;75140;47.754;8.840;2024-02-26T10:20:30;3.20;;;1.77;;
84877;SDS011;75140;47.754;8.840;2024-02-26T10:22:56;14.50;;;3.00;;
84877;SDS011;75140;47.754;8.840;2024-02-26T10:25:22;10.55;;;2.83;;
84877;SDS011;75140;47.754;8.840;2024-02-26T10:27:47;3.55;;;1.60;;
84877;SDS011;75140;47.754;8.840;2024-02-26T10:30:15;6.80;;;3.20;;
84877;SDS011;75140;47.754;8.840;2024-02-26T10:35:09;5.43;;;2.72;;
84877;SDS011;75140;47.754;8.840;2024-02-26T10:37:34;5.53;;;2.90;;
84877;SDS011;75140;47.754;8.840;2024-02-26T10:40:00;5.07;;;2.70;;
84877;SDS011;75140;47.754;8.840;2024-02-26T10:42:26;6.43;;;1.90;;
84877;SDS011;75140;47.754;8.840;2024-02-26T10:44:51;6.03;;;2.00;;
84877;SDS011;75140;47.754;8.840;2024-02-26T10:47:17;8.23;;;2.17;;
84877;SDS011;75140;47.754;8.840;2024-02-26T10:49:46;6.60;;;1.73;;
84877;SDS011;75140;47.754;8.840;2024-02-26T10:52:13;4.20;;;1.83;;
84877;SDS011;75140;47.754;8.840;2024-02-26T10:54:40;2.13;;;1.42;;
84877;SDS011;75140;47.754;8.840;2024-02-26T10:57:06;2.92;;;1.67;;
84877;SDS011;75140;47.754;8.840;2024-02-26T10:59:34;4.10;;;1.90;;
84877;SDS011;75140;47.754;8.840;2024-02-26T11:02:01;5.32;;;1.88;;
84877;SDS011;75140;47.754;8.840;2024-02-26T11:04:27;2.78;;;1.88;;
84877;SDS011;75140;47.754;8.840;2024-02-26T11:06:56;2.50;;;1.50;;
84877;SDS011;75140;47.754;8.840;2024-02-26T11:09:22;3.35;;;1.70;;
84877;SDS011;75140;47.754;8.840;2024-02-26T11:11:48;2.03;;;1.45;;
84877;SDS011;75140;47.754;8.840;2024-02-26T11:14:19;2.92;;;1.50;;
84877;SDS011;75140;47.754;8.840;2024-02-26T11:16:45;2.58;;;1.50;;
84877;SDS011;75140;47.754;8.840;2024-02-26T11:19:12;3.92;;;1.42;;
84877;SDS011;75140;47.754;8.840;2024-02-26T11:21:39;2.13;;;1.20;;
84877;SDS011;75140;47.754;8.840;2024-02-26T11:24:07;2.28;;;1.58;;
84877;SDS011;75140;47.754;8.840;2024-02-26T11:26:34;1.63;;;1.40;;
84877;SDS011;75140;47.754;8.840;2024-02-26T11:31:30;3.45;;;1.90;;
84877;SDS011;75140;47.754;8.840;2024-02-26T11:33:55;4.30;;;2.03;;
84877;SDS011;75140;47.754;8.840;2024-02-26T11:36:21;2.90;;;1.67;;
84877;SDS011;75140;47.754;8.840;2024-02-26T11:38:48;2.47;;;1.73;;
84877;SDS011;75140;47.754;8.840;2024-02-26T11:41:16;3.80;;;1.77;;
84877;SDS011;75140;47.754;8.840;2024-02-26T11:43:49;2.47;;;1.80;;
84877;SDS011;75140;47.754;8.840;2024-02-26T11:46:29;3.65;;;1.35;;
84877;SDS011;75140;47.754;8.840;2024-02-26T11:48:59;3.83;;;1.75;;
84877;SDS011;75140;47.754;8.840;2024-02-26T11:51:26;2.60;;;1.40;;
84877;SDS011;75140;47.754;8.840;2024-02-26T11:53:53;4.32;;;1.60;;
84877;SDS011;75140;47.754;8.840;2024-02-26T11:59:01;2.63;;;1.70;;
84877;SDS011;75140;47.754;8.840;2024-02-26T12:01:45;9.13;;;2.17;;
84877;SDS011;75140;47.754;8.840;2024-02-26T12:04:18;4.80;;;1.60;;
84877;SDS011;75140;47.754;8.840;2024-02-26T12:06:47;9.07;;;1.83;;
84877;SDS011;75140;47.754;8.840;2024-02-26T12:12:06;3.60;;;1.65;;
84877;SDS011;75140;47.754;8.840;2024-02-26T12:14:33;3.83;;;1.60;;
84877;SDS011;75140;47.754;8.840;2024-02-26T12:16:59;3.40;;;2.20;;
84877;SDS011;75140;47.754;8.840;2024-02-26T12:19:25;4.05;;;2.15;;
84877;SDS011;75140;47.754;8.840;2024-02-26T12:21:52;2.55;;;1.88;;
84877;SDS011;75140;47.754;8.840;2024-02-26T12:24:20;1.88;;;1.45;;
84877;SDS011;75140;47.754;8.840;2024-02-26T12:26:46;4.35;;;1.75;;
84877;SDS011;75140;47.754;8.840;2024-02-26T12:29:12;3.00;;;1.83;;
84877;SDS011;75140;47.754;8.840;2024-02-26T12:31:38;2.40;;;2.10;;
84877;SDS011;75140;47.754;8.840;2024-02-26T12:34:05;4.63;;;1.42;;
84877;SDS011;75140;47.754;8.840;2024-02-26T12:36:31;3.47;;;1.40;;
84877;SDS011;75140;47.754;8.840;2024-02-26T12:38:59;2.85;;;1.58;;
84877;SDS011;75140;47.754;8.840;2024-02-26T12:41:25;2.00;;;1.40;;
84877;SDS011;75140;47.754;8.840;2024-02-26T12:43:52;2.83;;;1.30;;
84877;SDS011;75140;47.754;8.840;2024-02-26T12:46:18;8.77;;;2.00;;
84877;SDS011;75140;47.754;8.840;2024-02-26T12:48:43;2.97;;;1.45;;
84877;SDS011;75140;47.754;8.840;2024-02-26T12:51:10;22.25;;;3.13;;
84877;SDS011;75140;47.754;8.840;2024-02-26T12:53:37;3.28;;;1.52;;
84877;SDS011;75140;47.754;8.840;2024-02-26T12:56:03;2.45;;;1.40;;
84877;SDS011;75140;47.754;8.840;2024-02-26T12:58:30;3.83;;;1.30;;
84877;SDS011;75140;47.754;8.840;2024-02-26T13:00:56;2.90;;;1.45;;
84877;SDS011;75140;47.754;8.840;2024-02-26T13:03:22;4.05;;;2.08;;
84877;SDS011;75140;47.754;8.840;2024-02-26T13:05:48;3.40;;;1.25;;
84877;SDS011;75140;47.754;8.840;2024-02-26T13:08:18;3.92;;;1.40;;
84877;SDS011;75140;47.754;8.840;2024-02-26T13:13:11;1.63;;;0.90;;
84877;SDS011;75140;47.754;8.840;2024-02-26T13:15:36;2.50;;;1.02;;
84877;SDS011;75140;47.754;8.840;2024-02-26T13:18:11;5.30;;;1.00;;
84877;SDS011;75140;47.754;8.840;2024-02-26T13:20:37;1.40;;;0.80;;
84877;SDS011;75140;47.754;8.840;2024-02-26T13:23:05;1.25;;;0.85;;
84877;SDS011;75140;47.754;8.840;2024-02-26T13:25:32;8.13;;;1.50;;
84877;SDS011;75140;47.754;8.840;2024-02-26T13:28:08;3.05;;;1.20;;
84877;SDS011;75140;47.754;8.840;2024-02-26T13:30:34;6.25;;;1.42;;
84877;SDS011;75140;47.754;8.840;2024-02-26T13:33:07;10.20;;;1.95;;
84877;SDS011;75140;47.754;8.840;2024-02-26T13:35:34;7.45;;;2.53;;
84877;SDS011;75140;47.754;8.840;2024-02-26T13:38:00;15.13;;;2.33;;
84877;SDS011;75140;47.754;8.840;2024-02-26T13:40:25;4.20;;;1.55;;
84877;SDS011;75140;47.754;8.840;2024-02-26T13:42:51;5.55;;;1.27;;
84877;SDS011;75140;47.754;8.840;2024-02-26T13:45:17;4.75;;;1.27;;
84877;SDS011;75140;47.754;8.840;2024-02-26T13:47:43;6.38;;;1.75;;
84877;SDS011;75140;47.754;8.840;2024-02-26T13:50:09;3.78;;;1.30;;
84877;SDS011;75140;47.754;8.840;2024-02-26T13:52:35;8.30;;;1.38;;
84877;SDS011;75140;47.754;8.840;2024-02-26T13:55:00;4.87;;;1.83;;
84877;SDS011;75140;47.754;8.840;2024-02-26T13:57:25;5.15;;;1.30;;
84877;SDS011;75140;47.754;8.840;2024-02-26T13:59:51;5.57;;;1.42;;
84877;SDS011;75140;47.754;8.840;2024-02-26T14:02:17;3.95;;;1.85;;
84877;SDS011;75140;47.754;8.840;2024-02-26T14:04:42;6.00;;;1.23;;
84877;SDS011;75140;47.754;8.840;2024-02-26T14:07:08;2.13;;;1.20;;
84877;SDS011;75140;47.754;8.840;2024-02-26T14:09:34;3.92;;;1.25;;
84877;SDS011;75140;47.754;8.840;2024-02-26T14:11:59;5.13;;;0.98;;
84877;SDS011;75140;47.754;8.840;2024-02-26T14:14:28;4.95;;;1.63;;
84877;SDS011;75140;47.754;8.840;2024-02-26T14:16:53;2.37;;;1.10;;
84877;SDS011;75140;47.754;8.840;2024-02-26T14:19:19;2.20;;;1.10;;
84877;SDS011;75140;47.754;8.840;2024-02-26T14:21:44;3.05;;;1.23;;
84877;SDS011;75140;47.754;8.840;2024-02-26T14:24:09;6.20;;;1.20;;
84877;SDS011;75140;47.754;8.840;2024-02-26T14:26:35;1.90;;;1.20;;
84877;SDS011;75140;47.754;8.840;2024-02-26T14:29:00;1.48;;;0.85;;
84877;SDS011;75140;47.754;8.840;2024-02-26T14:31:26;1.63;;;1.33;;
84877;SDS011;75140;47.754;8.840;2024-02-26T14:33:51;1.50;;;0.97;;
84877;SDS011;75140;47.754;8.840;2024-02-26T14:36:20;1.63;;;1.00;;
84877;SDS011;75140;47.754;8.840;2024-02-26T14:38:46;1.48;;;0.70;;
84877;SDS011;75140;47.754;8.840;2024-02-26T14:41:12;1.15;;;0.80;;
84877;SDS011;75140;47.754;8.840;2024-02-26T14:43:37;4.10;;;1.00;;
84877;SDS011;75140;47.754;8.840;2024-02-26T14:46:02;1.60;;;0.90;;
84877;SDS011;75140;47.754;8.840;2024-02-26T14:48:28;5.13;;;1.00;;
84877;SDS011;75140;47.754;8.840;2024-02-26T14:50:55;4.82;;;1.42;;
84877;SDS011;75140;47.754;8.840;2024-02-26T14:53:21;3.20;;;1.60;;
84877;SDS011;75140;47.754;8.840;2024-02-26T14:55:46;2.50;;;1.63;;